sensor_id;sensor_type;location;lat;lon;timestamp;P1;durP1;ratioP1;P2;durP2;ratioP2
8803;SDS011;4438;50.890;4.726;2023-03-01T00:00:37;15.77;;;13.63;;
8803;SDS011;4438;50.890;4.726;2023-03-01T00:03:03;17.37;;;14.60;;
8803;SDS011;4438;50.890;4.726;2023-03-01T00:05:30;15.50;;;13.87;;
8803;SDS011;4438;50.890;4.726;2023-03-01T00:07:56;15.43;;;13.70;;
8803;SDS011;4438;50.890;4.726;2023-03-01T00:10:22;15.87;;;14.10;;
8803;SDS011;4438;50.890;4.726;2023-03-01T00:12:48;16.27;;;14.57;;
8803;SDS011;4438;50.890;4.726;2023-03-01T00:15:14;15.57;;;13.73;;
8803;SDS011;4438;50.890;4.726;2023-03-01T00:17:40;15.23;;;13.40;;
8803;SDS011;4438;50.890;4.726;2023-03-01T00:20:06;17.83;;;14.40;;
8803;SDS011;4438;50.890;4.726;2023-03-01T00:22:35;15.73;;;13.83;;
8803;SDS011;4438;50.890;4.726;2023-03-01T00:25:01;15.13;;;13.53;;
8803;SDS011;4438;50.890;4.726;2023-03-01T00:27:27;15.77;;;13.57;;
8803;SDS011;4438;50.890;4.726;2023-03-01T00:29:53;16.20;;;14.03;;
8803;SDS011;4438;50.890;4.726;2023-03-01T00:32:19;16.10;;;14.27;;
8803;SDS011;4438;50.890;4.726;2023-03-01T00:34:45;15.80;;;14.10;;
8803;SDS011;4438;50.890;4.726;2023-03-01T00:37:22;14.17;;;12.70;;
8803;SDS011;4438;50.890;4.726;2023-03-01T00:39:48;15.27;;;13.37;;
8803;SDS011;4438;50.890;4.726;2023-03-01T00:42:14;15.70;;;13.60;;
8803;SDS011;4438;50.890;4.726;2023-03-01T00:44:41;14.77;;;12.93;;
8803;SDS011;4438;50.890;4.726;2023-03-01T00:47:07;15.00;;;13.40;;
8803;SDS011;4438;50.890;4.726;2023-03-01T00:49:34;15.33;;;13.73;;
8803;SDS011;4438;50.890;4.726;2023-03-01T00:52:00;16.20;;;13.53;;
8803;SDS011;4438;50.890;4.726;2023-03-01T00:54:26;15.43;;;12.73;;
8803;SDS011;4438;50.890;4.726;2023-03-01T00:56:52;16.10;;;14.37;;
8803;SDS011;4438;50.890;4.726;2023-03-01T00:59:18;15.57;;;13.80;;
8803;SDS011;4438;50.890;4.726;2023-03-01T01:01:44;15.17;;;13.60;;
8803;SDS011;4438;50.890;4.726;2023-03-01T01:04:11;14.97;;;13.47;;
8803;SDS011;4438;50.890;4.726;2023-03-01T01:06:41;16.13;;;13.63;;
8803;SDS011;4438;50.890;4.726;2023-03-01T01:09:08;15.10;;;13.17;;
8803;SDS011;4438;50.890;4.726;2023-03-01T01:11:42;14.73;;;12.87;;
8803;SDS011;4438;50.890;4.726;2023-03-01T01:14:08;15.23;;;13.13;;
8803;SDS011;4438;50.890;4.726;2023-03-01T01:16:34;14.93;;;13.30;;
8803;SDS011;4438;50.890;4.726;2023-03-01T01:19:00;14.37;;;12.13;;
8803;SDS011;4438;50.890;4.726;2023-03-01T01:21:26;14.37;;;12.83;;
8803;SDS011;4438;50.890;4.726;2023-03-01T01:23:53;17.07;;;14.07;;
8803;SDS011;4438;50.890;4.726;2023-03-01T01:26:20;13.70;;;12.20;;
8803;SDS011;4438;50.890;4.726;2023-03-01T01:28:47;15.00;;;12.67;;
8803;SDS011;4438;50.890;4.726;2023-03-01T01:31:13;14.70;;;12.83;;
8803;SDS011;4438;50.890;4.726;2023-03-01T01:33:40;16.10;;;13.77;;
8803;SDS011;4438;50.890;4.726;2023-03-01T01:36:06;14.57;;;13.07;;
8803;SDS011;4438;50.890;4.726;2023-03-01T01:38:33;14.60;;;13.00;;
8803;SDS011;4438;50.890;4.726;2023-03-01T01:40:59;16.83;;;13.77;;
8803;SDS011;4438;50.890;4.726;2023-03-01T01:43:27;14.20;;;12.67;;
8803;SDS011;4438;50.890;4.726;2023-03-01T01:46:01;15.33;;;12.77;;
8803;SDS011;4438;50.890;4.726;2023-03-01T01:48:30;14.47;;;12.90;;
8803;SDS011;4438;50.890;4.726;2023-03-01T01:51:05;13.37;;;11.97;;
8803;SDS011;4438;50.890;4.726;2023-03-01T01:53:32;15.23;;;13.33;;
8803;SDS011;4438;50.890;4.726;2023-03-01T01:55:58;14.73;;;12.70;;
8803;SDS011;4438;50.890;4.726;2023-03-01T01:58:27;13.87;;;12.47;;
8803;SDS011;4438;50.890;4.726;2023-03-01T02:00:55;13.93;;;12.47;;
8803;SDS011;4438;50.890;4.726;2023-03-01T02:03:26;14.50;;;12.97;;
8803;SDS011;4438;50.890;4.726;2023-03-01T02:05:58;13.60;;;12.20;;
8803;SDS011;4438;50.890;4.726;2023-03-01T02:08:27;14.00;;;11.80;;
8803;SDS011;4438;50.890;4.726;2023-03-01T02:10:55;13.73;;;12.00;;
8803;SDS011;4438;50.890;4.726;2023-03-01T02:13:22;13.07;;;11.70;;
8803;SDS011;4438;50.890;4.726;2023-03-01T02:15:48;13.90;;;12.27;;
8803;SDS011;4438;50.890;4.726;2023-03-01T02:18:16;13.37;;;11.63;;
8803;SDS011;4438;50.890;4.726;2023-03-01T02:23:12;14.37;;;12.20;;
8803;SDS011;4438;50.890;4.726;2023-03-01T02:30:30;12.93;;;11.53;;
8803;SDS011;4438;50.890;4.726;2023-03-01T02:32:56;13.00;;;11.43;;
8803;SDS011;4438;50.890;4.726;2023-03-01T02:35:28;13.67;;;11.50;;
8803;SDS011;4438;50.890;4.726;2023-03-01T02:37:55;13.60;;;11.67;;
8803;SDS011;4438;50.890;4.726;2023-03-01T02:40:22;12.83;;;11.53;;
8803;SDS011;4438;50.890;4.726;2023-03-01T02:42:53;12.77;;;11.07;;
8803;SDS011;4438;50.890;4.726;2023-03-01T02:45:20;12.93;;;11.50;;
8803;SDS011;4438;50.890;4.726;2023-03-01T02:47:47;12.67;;;11.30;;
8803;SDS011;4438;50.890;4.726;2023-03-01T02:50:15;12.70;;;11.37;;
8803;SDS011;4438;50.890;4.726;2023-03-01T02:55:29;13.80;;;11.57;;
8803;SDS011;4438;50.890;4.726;2023-03-01T02:57:55;12.83;;;11.53;;
8803;SDS011;4438;50.890;4.726;2023-03-01T03:00:22;12.70;;;11.10;;
8803;SDS011;4438;50.890;4.726;2023-03-01T03:02:50;12.53;;;11.03;;
8803;SDS011;4438;50.890;4.726;2023-03-01T03:07:44;14.03;;;12.30;;
8803;SDS011;4438;50.890;4.726;2023-03-01T03:10:24;12.53;;;11.00;;
8803;SDS011;4438;50.890;4.726;2023-03-01T03:12:51;14.47;;;12.30;;
8803;SDS011;4438;50.890;4.726;2023-03-01T03:15:18;13.23;;;11.83;;
8803;SDS011;4438;50.890;4.726;2023-03-01T03:17:45;14.60;;;11.90;;
8803;SDS011;4438;50.890;4.726;2023-03-01T03:20:13;13.43;;;11.43;;
8803;SDS011;4438;50.890;4.726;2023-03-01T03:22:44;13.00;;;11.50;;
8803;SDS011;4438;50.890;4.726;2023-03-01T03:25:10;12.97;;;11.67;;
8803;SDS011;4438;50.890;4.726;2023-03-01T03:27:40;13.17;;;11.77;;
8803;SDS011;4438;50.890;4.726;2023-03-01T03:30:09;13.87;;;11.63;;
8803;SDS011;4438;50.890;4.726;2023-03-01T03:32:41;13.13;;;11.73;;
8803;SDS011;4438;50.890;4.726;2023-03-01T03:35:08;14.43;;;12.57;;
8803;SDS011;4438;50.890;4.726;2023-03-01T03:37:38;14.27;;;12.30;;
8803;SDS011;4438;50.890;4.726;2023-03-01T03:40:24;13.70;;;12.27;;
8803;SDS011;4438;50.890;4.726;2023-03-01T03:42:50;13.93;;;11.70;;
8803;SDS011;4438;50.890;4.726;2023-03-01T03:45:17;13.90;;;12.10;;
8803;SDS011;4438;50.890;4.726;2023-03-01T03:47:43;13.90;;;12.17;;
8803;SDS011;4438;50.890;4.726;2023-03-01T03:50:10;13.93;;;12.40;;
8803;SDS011;4438;50.890;4.726;2023-03-01T03:52:36;13.20;;;11.50;;
8803;SDS011;4438;50.890;4.726;2023-03-01T03:55:02;14.83;;;11.93;;
8803;SDS011;4438;50.890;4.726;2023-03-01T03:57:28;15.50;;;12.27;;
8803;SDS011;4438;50.890;4.726;2023-03-01T03:59:54;13.63;;;12.23;;
8803;SDS011;4438;50.890;4.726;2023-03-01T04:02:20;14.57;;;11.73;;
8803;SDS011;4438;50.890;4.726;2023-03-01T04:04:50;14.53;;;11.37;;
8803;SDS011;4438;50.890;4.726;2023-03-01T04:07:16;14.93;;;11.87;;
8803;SDS011;4438;50.890;4.726;2023-03-01T04:09:42;13.53;;;11.70;;
8803;SDS011;4438;50.890;4.726;2023-03-01T04:12:09;12.87;;;11.43;;
8803;SDS011;4438;50.890;4.726;2023-03-01T04:14:35;13.97;;;11.53;;
8803;SDS011;4438;50.890;4.726;2023-03-01T04:17:02;13.97;;;11.77;;
8803;SDS011;4438;50.890;4.726;2023-03-01T04:19:33;12.60;;;11.30;;
8803;SDS011;4438;50.890;4.726;2023-03-01T04:22:04;12.53;;;11.20;;
8803;SDS011;4438;50.890;4.726;2023-03-01T04:24:37;13.17;;;11.80;;
8803;SDS011;4438;50.890;4.726;2023-03-01T04:27:03;12.30;;;11.10;;
8803;SDS011;4438;50.890;4.726;2023-03-01T04:29:29;12.43;;;11.13;;
8803;SDS011;4438;50.890;4.726;2023-03-01T04:31:55;15.17;;;11.00;;
8803;SDS011;4438;50.890;4.726;2023-03-01T04:34:21;11.93;;;10.73;;
8803;SDS011;4438;50.890;4.726;2023-03-01T04:36:47;15.03;;;11.83;;
8803;SDS011;4438;50.890;4.726;2023-03-01T04:39:13;14.67;;;11.70;;
8803;SDS011;4438;50.890;4.726;2023-03-01T04:41:40;15.00;;;11.43;;
8803;SDS011;4438;50.890;4.726;2023-03-01T04:44:07;13.07;;;11.10;;
8803;SDS011;4438;50.890;4.726;2023-03-01T04:46:34;12.37;;;11.07;;
8803;SDS011;4438;50.890;4.726;2023-03-01T04:49:01;13.67;;;10.70;;
8803;SDS011;4438;50.890;4.726;2023-03-01T04:51:27;12.30;;;11.00;;
8803;SDS011;4438;50.890;4.726;2023-03-01T04:53:53;11.10;;;10.00;;
8803;SDS011;4438;50.890;4.726;2023-03-01T04:56:19;12.30;;;11.00;;
8803;SDS011;4438;50.890;4.726;2023-03-01T04:58:48;11.60;;;10.40;;
8803;SDS011;4438;50.890;4.726;2023-03-01T05:01:18;13.63;;;11.07;;
8803;SDS011;4438;50.890;4.726;2023-03-01T05:03:46;12.83;;;10.40;;
8803;SDS011;4438;50.890;4.726;2023-03-01T05:06:12;11.90;;;10.27;;
8803;SDS011;4438;50.890;4.726;2023-03-01T05:08:38;12.10;;;10.47;;
8803;SDS011;4438;50.890;4.726;2023-03-01T05:11:05;12.27;;;10.90;;
8803;SDS011;4438;50.890;4.726;2023-03-01T05:13:34;12.20;;;10.80;;
8803;SDS011;4438;50.890;4.726;2023-03-01T05:16:00;12.57;;;11.27;;
8803;SDS011;4438;50.890;4.726;2023-03-01T05:18:28;13.17;;;10.90;;
8803;SDS011;4438;50.890;4.726;2023-03-01T05:20:56;12.53;;;10.77;;
8803;SDS011;4438;50.890;4.726;2023-03-01T05:23:29;12.97;;;10.80;;
8803;SDS011;4438;50.890;4.726;2023-03-01T05:25:57;13.33;;;11.43;;
8803;SDS011;4438;50.890;4.726;2023-03-01T05:28:24;11.83;;;10.47;;
8803;SDS011;4438;50.890;4.726;2023-03-01T05:30:51;11.00;;;9.87;;
8803;SDS011;4438;50.890;4.726;2023-03-01T05:33:17;11.47;;;9.87;;
8803;SDS011;4438;50.890;4.726;2023-03-01T05:35:44;13.07;;;11.00;;
8803;SDS011;4438;50.890;4.726;2023-03-01T05:38:10;11.10;;;10.00;;
8803;SDS011;4438;50.890;4.726;2023-03-01T05:40:43;11.20;;;10.10;;
8803;SDS011;4438;50.890;4.726;2023-03-01T05:43:09;12.37;;;9.80;;
8803;SDS011;4438;50.890;4.726;2023-03-01T05:45:36;11.60;;;10.27;;
8803;SDS011;4438;50.890;4.726;2023-03-01T05:48:03;11.40;;;10.20;;
8803;SDS011;4438;50.890;4.726;2023-03-01T05:50:32;12.30;;;10.20;;
8803;SDS011;4438;50.890;4.726;2023-03-01T05:53:03;13.27;;;10.83;;
8803;SDS011;4438;50.890;4.726;2023-03-01T05:55:30;13.53;;;10.73;;
8803;SDS011;4438;50.890;4.726;2023-03-01T05:58:00;12.47;;;11.17;;
8803;SDS011;4438;50.890;4.726;2023-03-01T06:00:27;11.13;;;9.97;;
8803;SDS011;4438;50.890;4.726;2023-03-01T06:02:54;13.70;;;10.00;;
8803;SDS011;4438;50.890;4.726;2023-03-01T06:05:20;12.60;;;10.73;;
8803;SDS011;4438;50.890;4.726;2023-03-01T06:07:47;13.47;;;11.13;;
8803;SDS011;4438;50.890;4.726;2023-03-01T06:10:13;15.10;;;11.60;;
8803;SDS011;4438;50.890;4.726;2023-03-01T06:12:40;12.30;;;10.80;;
8803;SDS011;4438;50.890;4.726;2023-03-01T06:15:07;14.57;;;11.23;;
8803;SDS011;4438;50.890;4.726;2023-03-01T06:17:35;12.23;;;10.70;;
8803;SDS011;4438;50.890;4.726;2023-03-01T06:20:03;13.57;;;10.87;;
8803;SDS011;4438;50.890;4.726;2023-03-01T06:22:29;11.93;;;10.63;;
8803;SDS011;4438;50.890;4.726;2023-03-01T06:24:55;12.37;;;10.10;;
8803;SDS011;4438;50.890;4.726;2023-03-01T06:27:21;13.00;;;10.97;;
8803;SDS011;4438;50.890;4.726;2023-03-01T06:29:47;11.37;;;10.13;;
8803;SDS011;4438;50.890;4.726;2023-03-01T06:32:14;12.10;;;10.80;;
8803;SDS011;4438;50.890;4.726;2023-03-01T06:34:40;15.27;;;11.20;;
8803;SDS011;4438;50.890;4.726;2023-03-01T06:37:06;14.97;;;10.63;;
8803;SDS011;4438;50.890;4.726;2023-03-01T06:39:32;12.53;;;10.30;;
8803;SDS011;4438;50.890;4.726;2023-03-01T06:41:59;13.10;;;11.07;;
8803;SDS011;4438;50.890;4.726;2023-03-01T06:44:25;14.00;;;11.90;;
8803;SDS011;4438;50.890;4.726;2023-03-01T06:46:51;12.80;;;10.80;;
8803;SDS011;4438;50.890;4.726;2023-03-01T06:49:17;11.93;;;10.37;;
8803;SDS011;4438;50.890;4.726;2023-03-01T06:51:45;13.43;;;11.40;;
8803;SDS011;4438;50.890;4.726;2023-03-01T06:54:11;12.70;;;10.37;;
8803;SDS011;4438;50.890;4.726;2023-03-01T06:56:37;13.77;;;11.87;;
8803;SDS011;4438;50.890;4.726;2023-03-01T06:59:04;12.10;;;10.70;;
8803;SDS011;4438;50.890;4.726;2023-03-01T07:01:30;14.60;;;11.27;;
8803;SDS011;4438;50.890;4.726;2023-03-01T07:03:56;25.17;;;17.67;;
8803;SDS011;4438;50.890;4.726;2023-03-01T07:06:22;15.40;;;12.10;;
8803;SDS011;4438;50.890;4.726;2023-03-01T07:08:49;14.90;;;12.40;;
8803;SDS011;4438;50.890;4.726;2023-03-01T07:11:15;14.27;;;11.33;;
8803;SDS011;4438;50.890;4.726;2023-03-01T07:13:41;12.77;;;11.40;;
8803;SDS011;4438;50.890;4.726;2023-03-01T07:16:07;13.00;;;11.27;;
8803;SDS011;4438;50.890;4.726;2023-03-01T07:18:33;16.30;;;11.50;;
8803;SDS011;4438;50.890;4.726;2023-03-01T07:21:06;18.57;;;14.40;;
8803;SDS011;4438;50.890;4.726;2023-03-01T07:23:33;16.80;;;12.90;;
8803;SDS011;4438;50.890;4.726;2023-03-01T07:25:59;13.57;;;11.70;;
8803;SDS011;4438;50.890;4.726;2023-03-01T07:28:25;13.03;;;11.70;;
8803;SDS011;4438;50.890;4.726;2023-03-01T07:30:52;15.83;;;12.20;;
8803;SDS011;4438;50.890;4.726;2023-03-01T07:33:19;15.57;;;12.20;;
8803;SDS011;4438;50.890;4.726;2023-03-01T07:35:45;16.63;;;12.07;;
8803;SDS011;4438;50.890;4.726;2023-03-01T07:38:11;14.03;;;12.10;;
8803;SDS011;4438;50.890;4.726;2023-03-01T07:40:37;13.73;;;11.17;;
8803;SDS011;4438;50.890;4.726;2023-03-01T07:43:03;13.50;;;11.37;;
8803;SDS011;4438;50.890;4.726;2023-03-01T07:45:29;18.33;;;12.27;;
8803;SDS011;4438;50.890;4.726;2023-03-01T07:47:55;13.23;;;10.53;;
8803;SDS011;4438;50.890;4.726;2023-03-01T07:50:22;16.50;;;13.73;;
8803;SDS011;4438;50.890;4.726;2023-03-01T07:52:49;12.83;;;11.40;;
8803;SDS011;4438;50.890;4.726;2023-03-01T07:55:15;13.87;;;11.37;;
8803;SDS011;4438;50.890;4.726;2023-03-01T07:57:42;13.40;;;11.80;;
8803;SDS011;4438;50.890;4.726;2023-03-01T08:00:10;13.50;;;11.93;;
8803;SDS011;4438;50.890;4.726;2023-03-01T08:02:37;15.87;;;11.73;;
8803;SDS011;4438;50.890;4.726;2023-03-01T08:05:03;12.70;;;10.90;;
8803;SDS011;4438;50.890;4.726;2023-03-01T08:07:30;13.37;;;11.80;;
8803;SDS011;4438;50.890;4.726;2023-03-01T08:09:56;13.03;;;10.90;;
8803;SDS011;4438;50.890;4.726;2023-03-01T08:12:22;14.20;;;12.13;;
8803;SDS011;4438;50.890;4.726;2023-03-01T08:14:48;13.97;;;11.53;;
8803;SDS011;4438;50.890;4.726;2023-03-01T08:17:14;13.97;;;11.47;;
8803;SDS011;4438;50.890;4.726;2023-03-01T08:19:40;14.13;;;11.97;;
8803;SDS011;4438;50.890;4.726;2023-03-01T08:22:06;16.37;;;12.00;;
8803;SDS011;4438;50.890;4.726;2023-03-01T08:24:32;12.67;;;11.23;;
8803;SDS011;4438;50.890;4.726;2023-03-01T08:26:59;12.87;;;11.20;;
8803;SDS011;4438;50.890;4.726;2023-03-01T08:29:25;12.87;;;11.17;;
8803;SDS011;4438;50.890;4.726;2023-03-01T08:31:51;14.67;;;11.77;;
8803;SDS011;4438;50.890;4.726;2023-03-01T08:34:18;13.57;;;11.50;;
8803;SDS011;4438;50.890;4.726;2023-03-01T08:36:45;16.30;;;12.13;;
8803;SDS011;4438;50.890;4.726;2023-03-01T08:39:12;13.87;;;11.93;;
8803;SDS011;4438;50.890;4.726;2023-03-01T08:41:39;13.43;;;12.03;;
8803;SDS011;4438;50.890;4.726;2023-03-01T08:44:05;15.70;;;12.13;;
8803;SDS011;4438;50.890;4.726;2023-03-01T08:46:33;13.50;;;12.07;;
8803;SDS011;4438;50.890;4.726;2023-03-01T08:49:03;15.07;;;12.13;;
8803;SDS011;4438;50.890;4.726;2023-03-01T08:51:29;16.20;;;12.00;;
8803;SDS011;4438;50.890;4.726;2023-03-01T08:53:57;16.13;;;11.53;;
8803;SDS011;4438;50.890;4.726;2023-03-01T08:56:23;14.47;;;12.53;;
8803;SDS011;4438;50.890;4.726;2023-03-01T08:58:49;16.13;;;12.30;;
8803;SDS011;4438;50.890;4.726;2023-03-01T09:01:16;14.50;;;12.43;;
8803;SDS011;4438;50.890;4.726;2023-03-01T09:03:43;14.77;;;12.33;;
8803;SDS011;4438;50.890;4.726;2023-03-01T09:06:10;13.97;;;12.23;;
8803;SDS011;4438;50.890;4.726;2023-03-01T09:08:43;14.87;;;12.03;;
8803;SDS011;4438;50.890;4.726;2023-03-01T09:11:10;14.90;;;13.30;;
8803;SDS011;4438;50.890;4.726;2023-03-01T09:13:37;17.13;;;12.87;;
8803;SDS011;4438;50.890;4.726;2023-03-01T09:16:04;14.77;;;12.37;;
8803;SDS011;4438;50.890;4.726;2023-03-01T09:18:31;13.97;;;12.47;;
8803;SDS011;4438;50.890;4.726;2023-03-01T09:21:01;14.43;;;12.33;;
8803;SDS011;4438;50.890;4.726;2023-03-01T09:23:32;16.50;;;12.07;;
8803;SDS011;4438;50.890;4.726;2023-03-01T09:25:58;13.70;;;12.00;;
8803;SDS011;4438;50.890;4.726;2023-03-01T09:28:24;16.43;;;12.60;;
8803;SDS011;4438;50.890;4.726;2023-03-01T09:30:50;15.73;;;12.77;;
8803;SDS011;4438;50.890;4.726;2023-03-01T09:33:16;15.20;;;11.90;;
8803;SDS011;4438;50.890;4.726;2023-03-01T09:35:42;13.83;;;12.20;;
8803;SDS011;4438;50.890;4.726;2023-03-01T09:38:12;14.20;;;12.23;;
8803;SDS011;4438;50.890;4.726;2023-03-01T09:40:42;14.57;;;11.93;;
8803;SDS011;4438;50.890;4.726;2023-03-01T09:43:58;15.73;;;12.57;;
8803;SDS011;4438;50.890;4.726;2023-03-01T09:46:04;14.60;;;12.63;;
8803;SDS011;4438;50.890;4.726;2023-03-01T09:48:34;14.77;;;12.60;;
8803;SDS011;4438;50.890;4.726;2023-03-01T09:51:03;14.67;;;12.13;;
8803;SDS011;4438;50.890;4.726;2023-03-01T09:53:32;16.13;;;12.60;;
8803;SDS011;4438;50.890;4.726;2023-03-01T09:58:41;13.53;;;12.10;;
8803;SDS011;4438;50.890;4.726;2023-03-01T10:01:21;20.20;;;12.70;;
8803;SDS011;4438;50.890;4.726;2023-03-01T10:04:04;14.27;;;12.77;;
8803;SDS011;4438;50.890;4.726;2023-03-01T10:06:34;14.57;;;12.00;;
8803;SDS011;4438;50.890;4.726;2023-03-01T10:11:30;17.20;;;13.30;;
8803;SDS011;4438;50.890;4.726;2023-03-01T10:16:50;14.33;;;12.30;;
8803;SDS011;4438;50.890;4.726;2023-03-01T10:19:27;15.53;;;12.13;;
8803;SDS011;4438;50.890;4.726;2023-03-01T10:21:55;16.47;;;13.67;;
8803;SDS011;4438;50.890;4.726;2023-03-01T10:24:23;17.47;;;13.47;;
8803;SDS011;4438;50.890;4.726;2023-03-01T10:26:56;16.77;;;12.30;;
8803;SDS011;4438;50.890;4.726;2023-03-01T10:29:48;15.10;;;12.63;;
8803;SDS011;4438;50.890;4.726;2023-03-01T10:32:10;15.83;;;12.63;;
8803;SDS011;4438;50.890;4.726;2023-03-01T10:34:36;15.13;;;12.57;;
8803;SDS011;4438;50.890;4.726;2023-03-01T10:39:53;15.03;;;12.33;;
8803;SDS011;4438;50.890;4.726;2023-03-01T10:42:22;17.13;;;11.73;;
8803;SDS011;4438;50.890;4.726;2023-03-01T10:44:51;14.80;;;12.00;;
8803;SDS011;4438;50.890;4.726;2023-03-01T10:50:46;15.23;;;12.30;;
8803;SDS011;4438;50.890;4.726;2023-03-01T10:52:40;13.53;;;11.73;;
8803;SDS011;4438;50.890;4.726;2023-03-01T10:57:37;13.73;;;11.40;;
8803;SDS011;4438;50.890;4.726;2023-03-01T11:00:21;12.63;;;10.97;;
8803;SDS011;4438;50.890;4.726;2023-03-01T11:02:48;13.80;;;11.40;;
8803;SDS011;4438;50.890;4.726;2023-03-01T11:05:22;12.80;;;11.27;;
8803;SDS011;4438;50.890;4.726;2023-03-01T11:10:23;14.23;;;11.80;;
8803;SDS011;4438;50.890;4.726;2023-03-01T11:12:50;13.17;;;11.47;;
8803;SDS011;4438;50.890;4.726;2023-03-01T11:15:21;12.83;;;10.67;;
8803;SDS011;4438;50.890;4.726;2023-03-01T11:17:48;13.23;;;11.47;;
8803;SDS011;4438;50.890;4.726;2023-03-01T11:20:21;14.20;;;11.37;;
8803;SDS011;4438;50.890;4.726;2023-03-01T11:22:53;12.40;;;11.10;;
8803;SDS011;4438;50.890;4.726;2023-03-01T11:25:23;12.37;;;10.93;;
8803;SDS011;4438;50.890;4.726;2023-03-01T11:27:49;12.33;;;10.67;;
8803;SDS011;4438;50.890;4.726;2023-03-01T11:30:38;11.93;;;10.73;;
8803;SDS011;4438;50.890;4.726;2023-03-01T11:33:08;12.30;;;11.10;;
8803;SDS011;4438;50.890;4.726;2023-03-01T11:35:53;12.90;;;10.77;;
8803;SDS011;4438;50.890;4.726;2023-03-01T11:38:25;12.43;;;11.13;;
8803;SDS011;4438;50.890;4.726;2023-03-01T11:43:28;11.93;;;10.60;;
8803;SDS011;4438;50.890;4.726;2023-03-01T11:51:09;12.03;;;10.83;;
8803;SDS011;4438;50.890;4.726;2023-03-01T11:56:29;12.67;;;10.53;;
8803;SDS011;4438;50.890;4.726;2023-03-01T12:01:40;12.93;;;11.53;;
8803;SDS011;4438;50.890;4.726;2023-03-01T12:07:00;14.80;;;11.60;;
8803;SDS011;4438;50.890;4.726;2023-03-01T12:12:12;12.33;;;10.30;;
8803;SDS011;4438;50.890;4.726;2023-03-01T12:17:18;11.80;;;10.60;;
8803;SDS011;4438;50.890;4.726;2023-03-01T12:22:31;11.13;;;9.97;;
8803;SDS011;4438;50.890;4.726;2023-03-01T12:25:04;11.40;;;10.20;;
8803;SDS011;4438;50.890;4.726;2023-03-01T12:28:25;13.20;;;10.70;;
8803;SDS011;4438;50.890;4.726;2023-03-01T12:30:46;11.10;;;9.97;;
8803;SDS011;4438;50.890;4.726;2023-03-01T12:33:37;12.93;;;11.53;;
8803;SDS011;4438;50.890;4.726;2023-03-01T12:41:42;12.13;;;10.87;;
8803;SDS011;4438;50.890;4.726;2023-03-01T12:46:47;12.10;;;10.90;;
8803;SDS011;4438;50.890;4.726;2023-03-01T12:49:25;15.80;;;11.37;;
8803;SDS011;4438;50.890;4.726;2023-03-01T12:52:03;11.33;;;10.20;;
8803;SDS011;4438;50.890;4.726;2023-03-01T12:54:35;11.50;;;9.90;;
8803;SDS011;4438;50.890;4.726;2023-03-01T12:57:45;14.73;;;11.07;;
8803;SDS011;4438;50.890;4.726;2023-03-01T13:02:50;11.37;;;10.27;;
8803;SDS011;4438;50.890;4.726;2023-03-01T13:05:20;12.00;;;10.90;;
8803;SDS011;4438;50.890;4.726;2023-03-01T13:07:58;11.70;;;10.47;;
8803;SDS011;4438;50.890;4.726;2023-03-01T13:17:50;11.73;;;10.63;;
8803;SDS011;4438;50.890;4.726;2023-03-01T13:20:18;11.10;;;10.10;;
8803;SDS011;4438;50.890;4.726;2023-03-01T13:22:45;10.77;;;9.77;;
8803;SDS011;4438;50.890;4.726;2023-03-01T13:25:12;10.93;;;9.93;;
8803;SDS011;4438;50.890;4.726;2023-03-01T13:27:39;11.87;;;10.53;;
8803;SDS011;4438;50.890;4.726;2023-03-01T13:30:12;11.40;;;10.30;;
8803;SDS011;4438;50.890;4.726;2023-03-01T13:32:51;11.20;;;10.10;;
8803;SDS011;4438;50.890;4.726;2023-03-01T13:37:43;11.73;;;10.50;;
8803;SDS011;4438;50.890;4.726;2023-03-01T13:42:47;11.77;;;10.57;;
8803;SDS011;4438;50.890;4.726;2023-03-01T13:45:34;10.60;;;9.60;;
8803;SDS011;4438;50.890;4.726;2023-03-01T13:48:02;10.90;;;9.80;;
8803;SDS011;4438;50.890;4.726;2023-03-01T13:50:33;11.80;;;10.60;;
8803;SDS011;4438;50.890;4.726;2023-03-01T13:53:00;11.70;;;10.60;;
8803;SDS011;4438;50.890;4.726;2023-03-01T13:58:30;11.67;;;10.40;;
8803;SDS011;4438;50.890;4.726;2023-03-01T14:01:03;10.57;;;9.67;;
8803;SDS011;4438;50.890;4.726;2023-03-01T14:03:31;11.67;;;10.53;;
8803;SDS011;4438;50.890;4.726;2023-03-01T14:08:24;12.50;;;10.80;;
8803;SDS011;4438;50.890;4.726;2023-03-01T14:18:57;11.77;;;10.10;;
8803;SDS011;4438;50.890;4.726;2023-03-01T14:21:27;10.77;;;9.67;;
8803;SDS011;4438;50.890;4.726;2023-03-01T14:23:53;11.10;;;9.80;;
8803;SDS011;4438;50.890;4.726;2023-03-01T14:26:22;11.07;;;9.87;;
8803;SDS011;4438;50.890;4.726;2023-03-01T14:28:49;11.07;;;9.97;;
8803;SDS011;4438;50.890;4.726;2023-03-01T14:31:49;10.20;;;9.20;;
8803;SDS011;4438;50.890;4.726;2023-03-01T14:34:16;11.20;;;10.10;;
8803;SDS011;4438;50.890;4.726;2023-03-01T14:36:44;13.30;;;10.47;;
8803;SDS011;4438;50.890;4.726;2023-03-01T14:39:17;13.23;;;10.47;;
8803;SDS011;4438;50.890;4.726;2023-03-01T14:41:43;10.77;;;9.77;;
8803;SDS011;4438;50.890;4.726;2023-03-01T14:44:15;10.90;;;9.73;;
8803;SDS011;4438;50.890;4.726;2023-03-01T14:46:43;10.23;;;9.33;;
8803;SDS011;4438;50.890;4.726;2023-03-01T14:49:17;10.33;;;9.33;;
8803;SDS011;4438;50.890;4.726;2023-03-01T14:51:58;10.77;;;9.50;;
8803;SDS011;4438;50.890;4.726;2023-03-01T14:54:41;9.70;;;8.80;;
8803;SDS011;4438;50.890;4.726;2023-03-01T14:57:25;10.60;;;9.63;;
8803;SDS011;4438;50.890;4.726;2023-03-01T14:59:52;9.27;;;8.37;;
8803;SDS011;4438;50.890;4.726;2023-03-01T15:02:20;10.43;;;9.37;;
8803;SDS011;4438;50.890;4.726;2023-03-01T15:04:49;9.37;;;8.50;;
8803;SDS011;4438;50.890;4.726;2023-03-01T15:07:16;9.53;;;8.53;;
8803;SDS011;4438;50.890;4.726;2023-03-01T15:09:42;13.63;;;8.87;;
8803;SDS011;4438;50.890;4.726;2023-03-01T15:14:54;10.17;;;8.60;;
8803;SDS011;4438;50.890;4.726;2023-03-01T15:19:46;10.17;;;9.03;;
8803;SDS011;4438;50.890;4.726;2023-03-01T15:22:16;9.93;;;8.93;;
8803;SDS011;4438;50.890;4.726;2023-03-01T15:24:46;9.73;;;8.70;;
8803;SDS011;4438;50.890;4.726;2023-03-01T15:27:14;10.13;;;9.13;;
8803;SDS011;4438;50.890;4.726;2023-03-01T15:29:42;9.63;;;8.67;;
8803;SDS011;4438;50.890;4.726;2023-03-01T15:32:33;8.80;;;7.90;;
8803;SDS011;4438;50.890;4.726;2023-03-01T15:35:00;10.43;;;9.20;;
8803;SDS011;4438;50.890;4.726;2023-03-01T15:37:38;10.20;;;9.17;;
8803;SDS011;4438;50.890;4.726;2023-03-01T15:42:43;9.53;;;8.60;;
8803;SDS011;4438;50.890;4.726;2023-03-01T15:45:19;9.53;;;8.50;;
8803;SDS011;4438;50.890;4.726;2023-03-01T15:47:46;10.97;;;8.93;;
8803;SDS011;4438;50.890;4.726;2023-03-01T15:50:19;10.30;;;8.93;;
8803;SDS011;4438;50.890;4.726;2023-03-01T15:52:46;10.10;;;9.10;;
8803;SDS011;4438;50.890;4.726;2023-03-01T15:55:15;10.27;;;8.77;;
8803;SDS011;4438;50.890;4.726;2023-03-01T15:57:41;9.43;;;8.47;;
8803;SDS011;4438;50.890;4.726;2023-03-01T16:00:09;9.57;;;8.57;;
8803;SDS011;4438;50.890;4.726;2023-03-01T16:02:39;9.33;;;8.43;;
8803;SDS011;4438;50.890;4.726;2023-03-01T16:05:05;9.43;;;8.50;;
8803;SDS011;4438;50.890;4.726;2023-03-01T16:07:32;9.90;;;8.70;;
8803;SDS011;4438;50.890;4.726;2023-03-01T16:09:58;9.20;;;8.13;;
8803;SDS011;4438;50.890;4.726;2023-03-01T16:12:24;8.53;;;7.63;;
8803;SDS011;4438;50.890;4.726;2023-03-01T16:14:51;10.83;;;9.03;;
8803;SDS011;4438;50.890;4.726;2023-03-01T16:17:18;9.67;;;8.57;;
8803;SDS011;4438;50.890;4.726;2023-03-01T16:19:44;10.17;;;7.97;;
8803;SDS011;4438;50.890;4.726;2023-03-01T16:22:10;10.80;;;8.27;;
8803;SDS011;4438;50.890;4.726;2023-03-01T16:24:36;9.30;;;8.30;;
8803;SDS011;4438;50.890;4.726;2023-03-01T16:27:02;9.83;;;8.47;;
8803;SDS011;4438;50.890;4.726;2023-03-01T16:29:28;9.00;;;8.10;;
8803;SDS011;4438;50.890;4.726;2023-03-01T16:31:55;9.63;;;7.87;;
8803;SDS011;4438;50.890;4.726;2023-03-01T16:34:21;10.53;;;8.00;;
8803;SDS011;4438;50.890;4.726;2023-03-01T16:36:48;9.40;;;8.47;;
8803;SDS011;4438;50.890;4.726;2023-03-01T16:39:14;9.30;;;8.20;;